Time;durP1;ratioP1;P1;durP2;ratioP2;P2;SDS_P1;SDS_P2;PMS_P1;PMS_P2;Temp;Humidity;BMP_temperature;BMP_pressure;BME280_temperature;BME280_humidity;BME280_pressure;Samples;Min_cycle;Max_cycle;Signal;HPM_P1;HPM_P2
2022/05/04 00:01:09;;;;;;;;;;;17.90;89.90;;;;;;4593435;19;19919;-21
2022/05/04 00:02:40;;;;;;;;;;;18.00;89.80;;;;;;4593092;19;19938;-21
2022/05/04 00:04:11;;;;;;;;;;;18.00;89.80;;;;;;4593874;19;19935;-20
2022/05/04 00:05:42;;;;;;;;;;;17.90;89.80;;;;;;4594122;19;19919;-20
2022/05/04 00:07:13;;;;;;;;;;;18.00;89.80;;;;;;4593228;19;19914;-21
2022/05/04 00:08:44;;;;;;;;;;;18.00;89.70;;;;;;4593201;19;19918;-20
2022/05/04 00:10:15;;;;;;;;;;;18.00;89.70;;;;;;4591912;19;20292;-20
2022/05/04 00:11:46;;;;;;;;;;;17.90;89.60;;;;;;4593569;19;19915;-20
2022/05/04 00:13:17;;;;;;;;;;;18.00;89.80;;;;;;4592982;19;19918;-20
2022/05/04 00:14:48;;;;;;;;;;;18.00;89.80;;;;;;4592914;19;20333;-20
2022/05/04 00:16:18;;;;;;;;;;;17.90;89.70;;;;;;4592752;19;19922;-21
2022/05/04 00:17:50;;;;;;;;;;;17.90;89.70;;;;;;4593026;19;19940;-20
2022/05/04 00:19:20;;;;;;;;;;;17.90;89.80;;;;;;4593223;19;19915;-20
2022/05/04 00:20:51;;;;;;;;;;;17.90;89.80;;;;;;4592976;19;19974;-21
2022/05/04 00:22:22;;;;;;;;;;;17.90;89.70;;;;;;4593449;19;20327;-20
2022/05/04 00:23:53;;;;;;;;;;;17.90;89.70;;;;;;4591495;19;19995;-20
2022/05/04 00:25:24;;;;;;;;;;;17.90;89.60;;;;;;4593274;19;19915;-20
2022/05/04 00:26:55;;;;;;;;;;;17.90;89.70;;;;;;4593760;19;19939;-21
2022/05/04 00:28:26;;;;;;;;;;;17.90;89.70;;;;;;4591903;19;19925;-21
2022/05/04 00:29:57;;;;;;;;;;;17.90;89.70;;;;;;4592834;19;19966;-20
2022/05/04 00:31:28;;;;;;;;;;;17.90;89.60;;;;;;4592825;19;19952;-20
2022/05/04 00:33:00;;;;;;;;;;;17.90;89.60;;;;;;4593942;19;19919;-20
2022/05/04 00:34:31;;;;;;;;;;;17.90;89.60;;;;;;4591273;19;19918;-20
2022/05/04 00:36:03;;;;;;;;;;;17.90;89.50;;;;;;4592391;19;20306;-20
2022/05/04 00:37:48;;;;;;;;;;;17.90;89.50;;;;;;4592950;19;19978;-20
2022/05/04 00:39:19;;;;;;;;;;;17.90;89.50;;;;;;4593003;19;19915;-20
2022/05/04 00:40:50;;;;;;;;;;;17.90;89.40;;;;;;4592950;19;19919;-20
2022/05/04 00:42:21;;;;;;;;;;;17.90;89.50;;;;;;4592659;19;19915;-21
2022/05/04 00:43:52;;;;;;;;;;;17.90;89.50;;;;;;4589939;19;19945;-20
2022/05/04 00:45:23;;;;;;;;;;;17.90;89.50;;;;;;4592888;19;19914;-20
2022/05/04 00:46:54;;;;;;;;;;;17.90;89.50;;;;;;4592192;19;19923;-20
2022/05/04 00:48:25;;;;;;;;;;;17.90;89.40;;;;;;4592494;19;20265;-20
2022/05/04 00:49:56;;;;;;;;;;;17.90;89.40;;;;;;4592618;19;19919;-20
2022/05/04 00:51:27;;;;;;;;;;;17.90;89.40;;;;;;4589844;19;19919;-20
2022/05/04 00:52:58;;;;;;;;;;;17.90;89.30;;;;;;4592453;19;19927;-21
2022/05/04 00:54:30;;;;;;;;;;;17.90;89.40;;;;;;4592694;19;20253;-20
2022/05/04 00:56:00;;;;;;;;;;;17.90;89.30;;;;;;4592850;19;19915;-20
2022/05/04 00:59:21;;;;;;;;;;;17.90;89.30;;;;;;4592123;19;19910;-20
2022/05/04 01:00:53;;;;;;;;;;;17.90;89.30;;;;;;4592459;19;19978;-20
2022/05/04 01:02:24;;;;;;;;;;;17.90;89.30;;;;;;4591345;19;20326;-20
2022/05/04 01:03:55;;;;;;;;;;;17.90;89.40;;;;;;4590467;19;19974;-20
2022/05/04 01:05:26;;;;;;;;;;;17.90;89.40;;;;;;4590963;19;19915;-21
2022/05/04 01:06:57;;;;;;;;;;;17.90;89.40;;;;;;4591278;19;19986;-20
2022/05/04 01:08:28;;;;;;;;;;;17.90;89.40;;;;;;4592524;19;20368;-20
2022/05/04 01:09:59;;;;;;;;;;;17.90;89.40;;;;;;4591966;19;19915;-20
2022/05/04 01:11:30;;;;;;;;;;;17.90;89.30;;;;;;4592184;19;19923;-20
2022/05/04 01:13:01;;;;;;;;;;;17.90;89.40;;;;;;4592559;19;19923;-20
2022/05/04 01:14:32;;;;;;;;;;;17.90;89.80;;;;;;4592077;19;19937;-21
2022/05/04 01:16:03;;;;;;;;;;;17.90;89.30;;;;;;4591226;19;20340;-20
2022/05/04 01:17:33;;;;;;;;;;;17.90;89.30;;;;;;4590719;19;19915;-20
2022/05/04 01:19:05;;;;;;;;;;;17.90;89.40;;;;;;4591525;19;20329;-20
2022/05/04 01:20:36;;;;;;;;;;;17.90;89.40;;;;;;4592561;19;19921;-20
2022/05/04 01:22:06;;;;;;;;;;;17.90;89.40;;;;;;4591891;19;19922;-20
2022/05/04 01:23:37;;;;;;;;;;;17.90;89.30;;;;;;4589896;19;19965;-20
2022/05/04 01:25:09;;;;;;;;;;;17.90;89.30;;;;;;4590980;19;19925;-20
2022/05/04 01:26:40;;;;;;;;;;;17.90;89.40;;;;;;4589249;19;19932;-20
2022/05/04 01:28:11;;;;;;;;;;;17.90;89.30;;;;;;4588678;19;19996;-20
2022/05/04 01:29:42;;;;;;;;;;;17.90;89.30;;;;;;4589349;19;20347;-20
2022/05/04 01:31:13;;;;;;;;;;;17.90;89.40;;;;;;4590141;19;19936;-20
2022/05/04 01:32:44;;;;;;;;;;;17.90;89.40;;;;;;4589223;19;19943;-20
2022/05/04 01:34:15;;;;;;;;;;;17.80;89.30;;;;;;4589360;19;19907;-20
2022/05/04 01:35:46;;;;;;;;;;;17.80;89.30;;;;;;4589351;19;19939;-20
2022/05/04 01:37:17;;;;;;;;;;;17.80;89.30;;;;;;4590032;19;19918;-20
2022/05/04 01:38:48;;;;;;;;;;;17.80;89.40;;;;;;4589163;19;20299;-21
2022/05/04 01:40:19;;;;;;;;;;;17.80;89.30;;;;;;4589171;19;19907;-20
2022/05/04 01:42:05;;;;;;;;;;;17.90;89.40;;;;;;4589744;19;20249;-20
2022/05/04 01:43:36;;;;;;;;;;;17.90;89.30;;;;;;4588869;19;19978;-20
2022/05/04 01:45:09;;;;;;;;;;;17.90;89.40;;;;;;4588918;19;20326;-21
2022/05/04 01:46:39;;;;;;;;;;;17.90;89.30;;;;;;4588950;19;19982;-20
2022/05/04 01:48:10;;;;;;;;;;;17.80;89.30;;;;;;4589167;19;19923;-20
2022/05/04 01:49:42;;;;;;;;;;;17.80;89.30;;;;;;4589818;19;20345;-21
2022/05/04 01:51:12;;;;;;;;;;;17.90;89.40;;;;;;4588957;19;19919;-21
2022/05/04 01:52:43;;;;;;;;;;;17.80;89.30;;;;;;4589027;19;19922;-21
2022/05/04 01:54:14;;;;;;;;;;;17.80;89.40;;;;;;4589572;19;20260;-20
2022/05/04 01:55:45;;;;;;;;;;;17.80;89.50;;;;;;4588882;19;19919;-19
2022/05/04 01:57:16;;;;;;;;;;;17.80;89.50;;;;;;4589180;19;19932;-21
2022/05/04 01:58:47;;;;;;;;;;;17.80;89.40;;;;;;4589238;19;19918;-20
2022/05/04 02:00:18;;;;;;;;;;;17.80;89.50;;;;;;4589058;19;20321;-20
2022/05/04 02:01:49;;;;;;;;;;;17.80;89.40;;;;;;4588201;19;19922;-21
2022/05/04 02:03:20;;;;;;;;;;;17.80;89.40;;;;;;4587780;19;19926;-20
2022/05/04 02:04:51;;;;;;;;;;;17.80;89.30;;;;;;4590121;19;20325;-21
2022/05/04 02:06:22;;;;;;;;;;;17.80;89.80;;;;;;4590032;19;19928;-24
2022/05/04 02:07:54;;;;;;;;;;;17.80;89.20;;;;;;4590348;19;19974;-20
2022/05/04 02:09:27;;;;;;;;;;;17.80;89.20;;;;;;4591054;19;20391;-20
2022/05/04 02:10:57;;;;;;;;;;;17.80;89.20;;;;;;4591182;19;19938;-21
2022/05/04 02:12:28;;;;;;;;;;;17.80;89.20;;;;;;4590796;19;19970;-20
2022/05/04 02:14:00;;;;;;;;;;;17.80;89.20;;;;;;4590899;19;19914;-21
2022/05/04 02:15:30;;;;;;;;;;;17.80;89.20;;;;;;4589559;19;19933;-20
2022/05/04 02:17:01;;;;;;;;;;;17.80;89.20;;;;;;4590279;19;19970;-20
2022/05/04 02:18:33;;;;;;;;;;;17.80;89.20;;;;;;4590726;19;19919;-21
2022/05/04 02:20:04;;;;;;;;;;;17.80;89.20;;;;;;4590916;19;19959;-20
2022/05/04 02:21:35;;;;;;;;;;;17.80;89.30;;;;;;4589690;19;19919;-20
2022/05/04 02:23:06;;;;;;;;;;;17.80;89.20;;;;;;4590598;19;19919;-20
2022/05/04 02:24:36;;;;;;;;;;;17.80;89.20;;;;;;4590429;19;19919;-20
2022/05/04 02:26:08;;;;;;;;;;;17.80;89.20;;;;;;4590815;19;19974;-20
2022/05/04 02:27:38;;;;;;;;;;;17.80;89.20;;;;;;4590271;19;19923;-21
2022/05/04 02:29:09;;;;;;;;;;;17.80;89.10;;;;;;4590678;19;19915;-22
2022/05/04 02:30:40;;;;;;;;;;;17.80;89.10;;;;;;4590661;19;19926;-21
2022/05/04 02:32:11;;;;;;;;;;;17.80;89.10;;;;;;4590976;19;19967;-20
2022/05/04 02:33:44;;;;;;;;;;;17.80;89.10;;;;;;4589751;19;19914;-20
2022/05/04 02:38:54;;;;;;;;;;;17.80;89.00;;;;;;4590422;19;19929;-20
2022/05/04 02:40:28;;;;;;;;;;;17.80;89.00;;;;;;4590777;19;19919;-20
2022/05/04 02:41:59;;;;;;;;;;;17.80;89.00;;;;;;4591025;19;19915;-20
2022/05/04 02:43:30;;;;;;;;;;;17.80;89.00;;;;;;4589424;19;19938;-20
2022/05/04 02:45:01;;;;;;;;;;;17.80;88.90;;;;;;4590353;19;20380;-20
2022/05/04 02:46:32;;;;;;;;;;;17.80;88.90;;;;;;4590732;19;19984;-20
2022/05/04 02:48:03;;;;;;;;;;;17.80;88.90;;;;;;4590863;19;19978;-20
2022/05/04 02:49:33;;;;;;;;;;;17.80;89.00;;;;;;4590141;19;19923;-22
2022/05/04 02:51:05;;;;;;;;;;;17.70;89.00;;;;;;4589874;19;20359;-20
2022/05/04 02:52:35;;;;;;;;;;;17.70;89.00;;;;;;4590713;19;19915;-20
2022/05/04 02:54:06;;;;;;;;;;;17.70;89.00;;;;;;4589987;19;19915;-22
2022/05/04 02:55:37;;;;;;;;;;;17.70;89.00;;;;;;4589993;19;19919;-20
2022/05/04 02:57:08;;;;;;;;;;;17.70;89.00;;;;;;4590564;19;19970;-21
2022/05/04 02:58:39;;;;;;;;;;;17.70;88.90;;;;;;4591104;19;20338;-20
2022/05/04 03:00:10;;;;;;;;;;;17.70;88.80;;;;;;4589847;19;19942;-20
2022/05/04 03:03:37;;;;;;;;;;;17.70;88.80;;;;;;4588925;19;19929;-21
2022/05/04 03:05:08;;;;;;;;;;;17.80;88.80;;;;;;4590377;19;20373;-21
2022/05/04 03:06:40;;;;;;;;;;;17.70;88.70;;;;;;4588983;19;19932;-20
2022/05/04 03:08:10;;;;;;;;;;;17.70;88.60;;;;;;4589691;19;20257;-20
2022/05/04 03:09:42;;;;;;;;;;;17.70;88.60;;;;;;4589865;19;20339;-21
2022/05/04 03:13:02;;;;;;;;;;;17.70;88.60;;;;;;4590664;19;19919;-21
2022/05/04 03:14:32;;;;;;;;;;;17.70;88.50;;;;;;4591632;19;19956;-20
2022/05/04 03:16:04;;;;;;;;;;;17.70;88.50;;;;;;4593724;19;19926;-20
2022/05/04 03:17:35;;;;;;;;;;;17.70;88.40;;;;;;4595464;19;20258;-19
2022/05/04 03:19:06;;;;;;;;;;;17.70;88.40;;;;;;4594750;19;20265;-20
2022/05/04 03:20:37;;;;;;;;;;;17.70;88.40;;;;;;4594412;19;19919;-20
2022/05/04 03:22:08;;;;;;;;;;;17.70;88.50;;;;;;4594983;19;19974;-21
2022/05/04 03:23:39;;;;;;;;;;;17.70;88.50;;;;;;4593513;19;19922;-21
2022/05/04 03:25:10;;;;;;;;;;;17.70;88.50;;;;;;4594043;19;19919;-20
2022/05/04 03:26:41;;;;;;;;;;;17.70;88.50;;;;;;4594204;19;19918;-20
2022/05/04 03:28:12;;;;;;;;;;;17.70;88.50;;;;;;4592777;19;20387;-20
2022/05/04 03:29:43;;;;;;;;;;;17.70;88.40;;;;;;4595068;19;19923;-20
2022/05/04 03:31:14;;;;;;;;;;;17.70;88.40;;;;;;4594108;19;20343;-20
2022/05/04 03:32:45;;;;;;;;;;;17.70;88.40;;;;;;4594719;19;19932;-21
2022/05/04 03:34:16;;;;;;;;;;;17.70;88.90;;;;;;4594572;19;19948;-21
2022/05/04 03:35:47;;;;;;;;;;;17.70;88.30;;;;;;4593996;19;20325;-21
2022/05/04 03:37:18;;;;;;;;;;;17.70;88.30;;;;;;4593775;19;19922;-21
2022/05/04 03:38:49;;;;;;;;;;;17.70;88.20;;;;;;4593800;19;20239;-21
2022/05/04 03:40:20;;;;;;;;;;;17.70;88.20;;;;;;4594436;19;20277;-21
2022/05/04 03:41:51;;;;;;;;;;;17.70;88.10;;;;;;4593924;19;19919;-20
2022/05/04 03:43:21;;;;;;;;;;;17.70;88.10;;;;;;4593277;19;19983;-20
2022/05/04 03:44:52;;;;;;;;;;;17.70;88.10;;;;;;4593929;19;19946;-20
2022/05/04 03:46:24;;;;;;;;;;;17.70;88.00;;;;;;4594641;19;19986;-20
2022/05/04 03:47:55;;;;;;;;;;;17.70;88.00;;;;;;4593594;19;19967;-20
2022/05/04 03:49:25;;;;;;;;;;;17.70;87.90;;;;;;4590995;19;19915;-20
2022/05/04 03:50:56;;;;;;;;;;;17.70;87.90;;;;;;4592633;19;20233;-20
2022/05/04 03:52:28;;;;;;;;;;;17.70;87.80;;;;;;4593085;19;19978;-20
2022/05/04 03:53:58;;;;;;;;;;;17.70;87.80;;;;;;4593605;19;19914;-20
2022/05/04 03:55:29;;;;;;;;;;;17.70;87.70;;;;;;4593840;19;19929;-20
2022/05/04 03:57:00;;;;;;;;;;;17.70;87.70;;;;;;4594047;19;19939;-20
2022/05/04 03:58:31;;;;;;;;;;;17.70;87.60;;;;;;4593335;19;19915;-20
2022/05/04 04:00:03;;;;;;;;;;;17.70;87.60;;;;;;4593584;19;19919;-21
2022/05/04 04:01:34;;;;;;;;;;;17.70;87.60;;;;;;4593403;19;19911;-20
2022/05/04 04:03:05;;;;;;;;;;;17.70;87.50;;;;;;4594135;19;20253;-20
2022/05/04 04:04:36;;;;;;;;;;;17.70;87.50;;;;;;4593207;19;19917;-20
2022/05/04 04:06:07;;;;;;;;;;;17.70;87.50;;;;;;4593199;19;19919;-20
2022/05/04 04:07:38;;;;;;;;;;;17.70;87.40;;;;;;4593989;19;20352;-20
2022/05/04 04:09:09;;;;;;;;;;;17.70;87.40;;;;;;4593108;19;20248;-20
2022/05/04 04:10:41;;;;;;;;;;;17.70;87.30;;;;;;4593504;19;19946;-21
2022/05/04 04:12:12;;;;;;;;;;;17.70;87.30;;;;;;4593381;19;19922;-20
2022/05/04 04:13:43;;;;;;;;;;;17.70;87.20;;;;;;4593293;19;19919;-20
2022/05/04 04:15:14;;;;;;;;;;;17.70;87.20;;;;;;4593016;19;20234;-21
2022/05/04 04:16:45;;;;;;;;;;;17.70;87.00;;;;;;4592431;19;19927;-20
2022/05/04 04:18:16;;;;;;;;;;;17.70;87.00;;;;;;4593620;19;20245;-20
2022/05/04 04:21:50;;;;;;;;;;;17.70;86.90;;;;;;4593893;19;19910;-19
2022/05/04 04:21:50;;;;;;;;;;;17.70;86.90;;;;;;4592922;19;19937;-20
2022/05/04 04:23:21;;;;;;;;;;;17.60;86.80;;;;;;4591376;19;19984;-20
2022/05/04 04:24:52;;;;;;;;;;;17.60;86.70;;;;;;4592880;19;19914;-20
2022/05/04 04:26:23;;;;;;;;;;;17.60;86.60;;;;;;4592028;19;20251;-20
2022/05/04 04:27:54;;;;;;;;;;;17.70;86.60;;;;;;4590994;19;19925;-21
2022/05/04 04:29:25;;;;;;;;;;;17.60;86.40;;;;;;4592525;19;19991;-21
2022/05/04 04:30:56;;;;;;;;;;;17.60;86.40;;;;;;4594596;19;20334;-21
2022/05/04 04:32:27;;;;;;;;;;;17.60;86.30;;;;;;4593316;19;19911;-20
2022/05/04 04:33:58;;;;;;;;;;;17.60;86.10;;;;;;4592433;19;20267;-20
2022/05/04 04:35:29;;;;;;;;;;;17.60;86.00;;;;;;4592789;19;19931;-20
2022/05/04 04:37:00;;;;;;;;;;;17.60;85.80;;;;;;4593576;19;20261;-20
2022/05/04 04:38:31;;;;;;;;;;;17.60;85.70;;;;;;4592796;19;19918;-21
2022/05/04 04:40:02;;;;;;;;;;;17.60;85.60;;;;;;4592677;19;19915;-21
2022/05/04 04:41:33;;;;;;;;;;;17.60;85.50;;;;;;4592618;19;20336;-20
2022/05/04 04:43:04;;;;;;;;;;;17.60;85.30;;;;;;4592941;19;19915;-20
2022/05/04 04:44:35;;;;;;;;;;;17.60;85.20;;;;;;4593140;19;19919;-21
2022/05/04 04:46:06;;;;;;;;;;;17.60;85.00;;;;;;4592630;19;20251;-21
2022/05/04 04:47:37;;;;;;;;;;;17.60;84.90;;;;;;4593054;19;19921;-21
2022/05/04 04:49:08;;;;;;;;;;;17.60;84.80;;;;;;4593198;19;20321;-20
2022/05/04 04:50:39;;;;;;;;;;;17.60;84.60;;;;;;4592549;19;19937;-20
2022/05/04 04:52:10;;;;;;;;;;;17.60;84.40;;;;;;4592492;19;19911;-20
2022/05/04 04:53:41;;;;;;;;;;;17.60;84.30;;;;;;4592747;19;20299;-20
2022/05/04 04:55:12;;;;;;;;;;;17.60;84.10;;;;;;4592955;19;19915;-22
2022/05/04 04:56:43;;;;;;;;;;;17.60;84.00;;;;;;4592605;19;19919;-20
2022/05/04 04:58:14;;;;;;;;;;;17.60;83.90;;;;;;4592894;19;19915;-20
2022/05/04 04:59:48;;;;;;;;;;;17.60;83.70;;;;;;4593732;19;19978;-20
2022/05/04 05:01:19;;;;;;;;;;;17.60;83.60;;;;;;4594313;19;19934;-20
2022/05/04 05:02:50;;;;;;;;;;;17.70;83.50;;;;;;4594289;19;19978;-20
2022/05/04 05:04:21;;;;;;;;;;;17.60;83.30;;;;;;4594345;19;19918;-21
2022/05/04 05:05:52;;;;;;;;;;;17.60;83.10;;;;;;4593728;19;19911;-21
2022/05/04 05:07:23;;;;;;;;;;;17.60;82.90;;;;;;4594500;19;19918;-20
2022/05/04 05:08:54;;;;;;;;;;;17.60;82.70;;;;;;4594040;19;19914;-21
2022/05/04 05:10:24;;;;;;;;;;;17.60;82.50;;;;;;4593012;19;19919;-22
2022/05/04 05:11:56;;;;;;;;;;;17.60;82.20;;;;;;4593271;19;19915;-21
2022/05/04 05:13:27;;;;;;;;;;;17.60;82.00;;;;;;4591820;19;19932;-20
2022/05/04 05:16:48;;;;;;;;;;;17.60;81.50;;;;;;4591630;19;19956;-22
2022/05/04 05:18:20;;;;;;;;;;;17.60;81.30;;;;;;4592733;19;19915;-22
2022/05/04 05:19:51;;;;;;;;;;;17.60;81.00;;;;;;4590767;19;19930;-20
2022/05/04 05:21:24;;;;;;;;;;;17.60;80.80;;;;;;4590566;19;19991;-20
2022/05/04 05:22:55;;;;;;;;;;;17.60;80.50;;;;;;4591920;19;20257;-20
2022/05/04 05:24:26;;;;;;;;;;;17.60;80.20;;;;;;4592253;19;19947;-20
2022/05/04 05:25:57;;;;;;;;;;;17.60;79.90;;;;;;4591862;19;19914;-20
2022/05/04 05:27:29;;;;;;;;;;;17.60;79.60;;;;;;4591417;19;19921;-20
2022/05/04 05:28:59;;;;;;;;;;;17.60;79.20;;;;;;4590705;19;19926;-22
2022/05/04 05:30:31;;;;;;;;;;;17.60;78.90;;;;;;4591746;19;19918;-20
2022/05/04 05:32:02;;;;;;;;;;;17.60;78.60;;;;;;4590415;19;19919;-20
2022/05/04 05:33:32;;;;;;;;;;;17.60;78.40;;;;;;4588864;19;19915;-20
2022/05/04 05:35:04;;;;;;;;;;;17.60;78.20;;;;;;4590086;19;19930;-20
2022/05/04 05:36:36;;;;;;;;;;;17.70;78.00;;;;;;4591904;19;20299;-20
2022/05/04 05:38:08;;;;;;;;;;;17.70;77.90;;;;;;4591293;19;19950;-20
2022/05/04 05:39:40;;;;;;;;;;;17.70;77.80;;;;;;4591216;19;20379;-20
2022/05/04 05:41:11;;;;;;;;;;;17.70;77.60;;;;;;4592503;19;19933;-20
2022/05/04 05:42:42;;;;;;;;;;;17.80;77.50;;;;;;4591746;19;19918;-20
2022/05/04 05:44:13;;;;;;;;;;;17.80;77.40;;;;;;4589235;19;20245;-20
2022/05/04 05:45:44;;;;;;;;;;;17.80;77.20;;;;;;4591543;19;19920;-21
2022/05/04 05:47:15;;;;;;;;;;;17.80;77.10;;;;;;4591895;19;20556;-21
2022/05/04 05:48:47;;;;;;;;;;;17.90;77.50;;;;;;4591034;19;19922;-20
2022/05/04 05:50:17;;;;;;;;;;;17.90;76.90;;;;;;4591852;19;19915;-21
2022/05/04 05:51:48;;;;;;;;;;;17.90;76.70;;;;;;4592041;19;20341;-22
2022/05/04 05:53:19;;;;;;;;;;;18.00;76.70;;;;;;4591121;19;19926;-20
2022/05/04 05:54:51;;;;;;;;;;;18.00;76.60;;;;;;4591479;19;19919;-21
2022/05/04 05:56:22;;;;;;;;;;;18.00;76.50;;;;;;4591402;19;19926;-21
2022/05/04 05:57:53;;;;;;;;;;;18.00;76.30;;;;;;4591825;19;19942;-20
2022/05/04 05:59:24;;;;;;;;;;;18.10;76.20;;;;;;4591017;19;19935;-20
2022/05/04 06:00:55;;;;;;;;;;;18.00;76.00;;;;;;4588839;19;20002;-21
2022/05/04 06:02:26;;;;;;;;;;;18.00;75.90;;;;;;4590607;19;19934;-20
2022/05/04 06:03:57;;;;;;;;;;;18.00;75.60;;;;;;4588823;19;19919;-20
2022/05/04 06:05:28;;;;;;;;;;;18.10;75.50;;;;;;4591508;19;20313;-21
2022/05/04 06:06:59;;;;;;;;;;;18.00;75.30;;;;;;4591301;19;20294;-22
2022/05/04 06:08:30;;;;;;;;;;;18.00;75.30;;;;;;4591880;19;19930;-21
2022/05/04 06:10:01;;;;;;;;;;;18.00;75.30;;;;;;4591324;19;19915;-20
2022/05/04 06:11:34;;;;;;;;;;;18.00;75.20;;;;;;4591001;19;19915;-20
2022/05/04 06:13:05;;;;;;;;;;;17.90;75.10;;;;;;4590949;19;19922;-21
2022/05/04 06:14:36;;;;;;;;;;;17.90;75.10;;;;;;4590222;19;19951;-21
2022/05/04 06:16:07;;;;;;;;;;;17.90;75.60;;;;;;4590062;19;19923;-20
2022/05/04 06:17:38;;;;;;;;;;;18.00;75.00;;;;;;4590926;19;20343;-20
2022/05/04 06:19:09;;;;;;;;;;;17.90;74.80;;;;;;4591133;19;19923;-21
2022/05/04 06:20:40;;;;;;;;;;;17.90;74.70;;;;;;4591194;19;19915;-20
2022/05/04 06:22:11;;;;;;;;;;;17.90;74.60;;;;;;4590279;19;19939;-21
2022/05/04 06:23:42;;;;;;;;;;;17.90;74.50;;;;;;4589052;19;20345;-20
2022/05/04 06:25:13;;;;;;;;;;;17.90;74.40;;;;;;4590771;19;19919;-21
2022/05/04 06:26:44;;;;;;;;;;;17.90;74.40;;;;;;4590844;19;20365;-20
2022/05/04 06:28:15;;;;;;;;;;;17.90;74.30;;;;;;4589181;19;19911;-20
2022/05/04 06:35:15;;;;;;;;;;;17.90;73.90;;;;;;4591787;19;19919;-20
2022/05/04 06:36:46;;;;;;;;;;;17.90;73.80;;;;;;4590814;19;19994;-21
2022/05/04 06:38:17;;;;;;;;;;;17.90;73.70;;;;;;4590476;19;19925;-22
2022/05/04 06:39:47;;;;;;;;;;;18.00;73.80;;;;;;4590261;19;19915;-20
2022/05/04 06:41:18;;;;;;;;;;;18.00;74.30;;;;;;4590091;19;19961;-21
2022/05/04 06:42:49;;;;;;;;;;;18.00;73.70;;;;;;4590525;19;20266;-22
2022/05/04 06:44:20;;;;;;;;;;;18.00;73.70;;;;;;4587854;19;19918;-20
2022/05/04 06:45:51;;;;;;;;;;;18.00;73.70;;;;;;4588743;19;19952;-20
2022/05/04 06:47:22;;;;;;;;;;;18.00;73.80;;;;;;4588778;19;19938;-20
2022/05/04 06:48:53;;;;;;;;;;;18.00;73.90;;;;;;4594105;19;19990;-21
2022/05/04 06:50:24;;;;;;;;;;;18.00;74.10;;;;;;4596011;19;19937;-20
2022/05/04 06:51:55;;;;;;;;;;;18.00;74.10;;;;;;4595089;19;20280;-20
2022/05/04 06:53:25;;;;;;;;;;;18.00;74.30;;;;;;4594516;19;20325;-20
2022/05/04 06:54:57;;;;;;;;;;;18.00;74.10;;;;;;4594114;19;20317;-20
2022/05/04 06:56:27;;;;;;;;;;;18.10;74.10;;;;;;4594306;19;19915;-21
2022/05/04 06:57:59;;;;;;;;;;;18.20;73.90;;;;;;4595666;19;19927;-22
2022/05/04 06:59:30;;;;;;;;;;;18.30;73.70;;;;;;4595468;19;19922;-20
2022/05/04 07:01:01;;;;;;;;;;;18.40;73.50;;;;;;4595403;19;19923;-20
2022/05/04 07:02:33;;;;;;;;;;;18.40;73.30;;;;;;4595909;19;19915;-21
2022/05/04 07:04:04;;;;;;;;;;;18.60;73.70;;;;;;4593579;19;19922;-21
2022/05/04 07:05:34;;;;;;;;;;;18.60;72.90;;;;;;4594908;19;19942;-21
2022/05/04 07:07:06;;;;;;;;;;;18.70;72.90;;;;;;4594915;19;19944;-20
2022/05/04 07:08:37;;;;;;;;;;;18.80;73.30;;;;;;4595541;19;19923;-21
2022/05/04 07:10:08;;;;;;;;;;;18.90;72.70;;;;;;4596626;19;19923;-21
2022/05/04 07:11:39;;;;;;;;;;;18.90;72.50;;;;;;4594886;19;19918;-21
2022/05/04 07:13:10;;;;;;;;;;;19.00;72.40;;;;;;4594360;19;20329;-21
2022/05/04 07:14:41;;;;;;;;;;;19.10;72.20;;;;;;4594802;19;19921;-20
2022/05/04 07:16:12;;;;;;;;;;;19.10;72.20;;;;;;4594076;19;19923;-20
2022/05/04 07:17:43;;;;;;;;;;;19.10;72.10;;;;;;4594830;19;20344;-22
2022/05/04 07:19:14;;;;;;;;;;;19.10;72.20;;;;;;4594816;19;19966;-20
2022/05/04 07:20:45;;;;;;;;;;;19.10;72.20;;;;;;4594500;19;19918;-21
2022/05/04 07:22:16;;;;;;;;;;;19.10;72.10;;;;;;4594516;19;19932;-20
2022/05/04 07:23:47;;;;;;;;;;;19.10;72.20;;;;;;4593817;19;19930;-21
2022/05/04 07:25:18;;;;;;;;;;;19.10;72.40;;;;;;4595726;19;20364;-21
2022/05/04 07:26:49;;;;;;;;;;;19.00;72.50;;;;;;4593715;19;20026;-21
2022/05/04 07:28:20;;;;;;;;;;;19.00;72.40;;;;;;4593660;19;19942;-21
2022/05/04 07:29:51;;;;;;;;;;;19.00;72.50;;;;;;4593576;19;20005;-22
2022/05/04 07:31:22;;;;;;;;;;;19.00;72.60;;;;;;4594389;19;19919;-23
2022/05/04 07:32:53;;;;;;;;;;;19.00;72.60;;;;;;4594290;19;19910;-20
2022/05/04 07:34:23;;;;;;;;;;;19.00;72.60;;;;;;4595876;19;19982;-21
2022/05/04 07:35:54;;;;;;;;;;;19.00;72.70;;;;;;4596538;19;19922;-20
2022/05/04 07:37:25;;;;;;;;;;;19.00;72.80;;;;;;4595211;19;19922;-22
2022/05/04 07:38:56;;;;;;;;;;;19.00;72.80;;;;;;4594962;19;19922;-20
2022/05/04 07:42:26;;;;;;;;;;;19.00;72.80;;;;;;4596325;19;19923;-21
2022/05/04 07:43:59;;;;;;;;;;;19.00;73.00;;;;;;4595091;19;20609;-21
2022/05/04 07:45:30;;;;;;;;;;;19.00;73.00;;;;;;4595637;19;19915;-21
2022/05/04 07:47:01;;;;;;;;;;;19.00;72.90;;;;;;4593975;19;19915;-21
2022/05/04 07:48:32;;;;;;;;;;;19.00;72.90;;;;;;4595897;19;19927;-20
2022/05/04 07:50:05;;;;;;;;;;;19.00;73.20;;;;;;4595942;19;19922;-21
2022/05/04 07:51:35;;;;;;;;;;;18.90;73.30;;;;;;4595720;19;19922;-22
2022/05/04 07:53:06;;;;;;;;;;;18.90;73.50;;;;;;4595909;19;19971;-20
2022/05/04 07:54:37;;;;;;;;;;;18.90;73.60;;;;;;4595909;19;20253;-20
2022/05/04 07:56:08;;;;;;;;;;;18.90;73.50;;;;;;4595843;19;19966;-19
2022/05/04 07:57:39;;;;;;;;;;;18.90;73.70;;;;;;4595391;19;19938;-21
2022/05/04 07:59:10;;;;;;;;;;;18.90;73.70;;;;;;4595604;19;20273;-19
2022/05/04 08:04:21;;;;;;;;;;;18.80;73.80;;;;;;4591824;19;19924;-20
2022/05/04 08:05:52;;;;;;;;;;;18.80;73.70;;;;;;4594542;19;19974;-20
2022/05/04 08:07:23;;;;;;;;;;;18.90;73.50;;;;;;4595200;19;19922;-20
2022/05/04 08:08:54;;;;;;;;;;;18.90;73.40;;;;;;4595691;19;19970;-20
2022/05/04 08:10:25;;;;;;;;;;;19.00;73.20;;;;;;4595452;19;20285;-21
2022/05/04 08:11:56;;;;;;;;;;;19.10;73.10;;;;;;4594128;19;19911;-20
2022/05/04 08:13:27;;;;;;;;;;;19.30;73.00;;;;;;4595921;19;20389;-21
2022/05/04 08:14:58;;;;;;;;;;;19.30;72.90;;;;;;4593641;19;20290;-20
2022/05/04 08:16:29;;;;;;;;;;;19.50;72.50;;;;;;4592691;19;19922;-21
2022/05/04 08:18:01;;;;;;;;;;;19.60;73.70;;;;;;4592155;19;20100;-20
2022/05/04 08:19:32;;;;;;;;;;;19.70;72.10;;;;;;4595717;19;19914;-20
2022/05/04 08:21:03;;;;;;;;;;;19.70;72.10;;;;;;4592985;19;19951;-21
2022/05/04 08:22:34;;;;;;;;;;;19.70;72.10;;;;;;4594468;19;19911;-19
2022/05/04 08:24:05;;;;;;;;;;;19.70;72.10;;;;;;4593701;19;19974;-20
2022/05/04 08:25:36;;;;;;;3.80;0.88;;;19.70;72.00;;;;;;4592607;19;19978;-20
2022/05/04 08:27:08;;;;;;;1.58;0.85;;;19.70;72.10;;;;;;4593125;19;20011;-20
2022/05/04 08:28:39;;;;;;;1.30;0.77;;;19.70;72.00;;;;;;4591798;19;20102;-20
2022/05/04 08:30:10;;;;;;;1.95;1.00;;;19.70;72.00;;;;;;4594439;19;20070;-21
2022/05/04 08:31:41;;;;;;;1.25;0.70;;;19.80;72.00;;;;;;4593739;19;20459;-21
2022/05/04 08:33:12;;;;;;;1.30;0.70;;;19.80;72.10;;;;;;4594222;19;20531;-20
2022/05/04 08:34:43;;;;;;;1.80;1.00;;;19.80;72.00;;;;;;4594335;19;20014;-20
2022/05/04 08:36:14;;;;;;;;;;;19.80;73.60;;;;;;4593386;19;20029;-19
2022/05/04 08:37:46;;;;;;;;;;;19.90;72.50;;;;;;4592864;19;19922;-21
2022/05/04 08:39:17;;;;;;;;;;;20.00;71.70;;;;;;4592016;19;19922;-20
2022/05/04 08:40:50;;;;;;;;;;;20.00;71.70;;;;;;4592816;19;19918;-20
2022/05/04 08:42:21;;;;;;;;;;;20.00;71.70;;;;;;4595115;19;19939;-20
2022/05/04 08:43:52;;;;;;;;;;;20.00;71.80;;;;;;4593618;19;19915;-21
2022/05/04 08:45:23;;;;;;;;;;;20.00;71.60;;;;;;4593946;19;19952;-20
2022/05/04 08:46:54;;;;;;;;;;;20.00;71.70;;;;;;4592974;19;19955;-20
2022/05/04 08:48:25;;;;;;;;;;;20.00;71.60;;;;;;4594378;19;19919;-21
2022/05/04 08:49:56;;;;;;;;;;;20.00;71.50;;;;;;4592057;19;19914;-20
2022/05/04 08:51:27;;;;;;;;;;;20.10;73.40;;;;;;4592887;19;19922;-20
2022/05/04 08:52:58;;;;;;;2.67;0.80;;;20.30;73.50;;;;;;4590981;19;19934;-23
2022/05/04 08:54:29;;;;;;;2.40;1.30;;;20.40;72.60;;;;;;4591291;19;20011;-21
2022/05/04 08:56:00;;;;;;;2.88;1.55;;;20.40;72.40;;;;;;4592396;19;20334;-21
2022/05/04 08:57:31;;;;;;;3.25;1.20;;;20.50;72.60;;;;;;4591551;19;20076;-20
2022/05/04 08:59:06;;;;;;;1.50;1.00;;;20.50;71.70;;;;;;4591362;19;20018;-21
2022/05/04 09:00:37;;;;;;;1.90;0.90;;;20.50;71.30;;;;;;4593038;19;20066;-26
2022/05/04 09:02:08;;;;;;;1.30;0.82;;;20.50;71.00;;;;;;4593595;19;20018;-20
2022/05/04 09:03:39;;;;;;;1.35;0.88;;;20.40;71.50;;;;;;4592615;19;20428;-20
2022/05/04 09:05:18;;;;;;;2.00;0.90;;;20.30;71.20;;;;;;4593650;19;20010;-20
2022/05/04 09:06:50;;;;;;;2.78;0.95;;;20.30;71.30;;;;;;4593505;19;20485;-20
2022/05/04 09:08:23;;;;;;;2.00;1.55;;;20.20;71.50;;;;;;4592784;19;20069;-20
2022/05/04 09:09:55;;;;;;;1.63;0.90;;;20.20;72.90;;;;;;4593287;19;20422;-20